Aeroporto :
LOGIN :

Iscrizione | Disclaimer

   EN    FR    IT 

 










Sommario :    VFR   VFR Marginale   IFR   IFR Intensivo   IFR Molto Intensivo
Visibilità : 
Base nubi : 
>= 8 km
>= 3000ft
5 / 8 km
1000 / 3000 ft
1500m / 5 km
500 / 1000 ft
800 / 1500m
200 / 500 ft
< 800m
< 200 ft
Simboli :   Temporali  Nebbia  Neve Forte  Precipitazioni Forti  Vento > 20 kt
SIGMETs :   Varie  Temporali  Ghiacco  Turbolenza  Onda orograficha  Ceneri Vulcaniche






- Altitudine del aeroporto : 102 ft
- Codice IATA : EXT


EGTE - Exeter

ULTIMO METAR :
  • 051720Z 21011KT 9999 FEW015 BKN041 10/07 Q1017

METARs OBSOLETI :
  • 051650Z 22010KT 9999 FEW015 BKN045 10/06 Q1017
  • 051620Z 22008KT 9999 FEW015 BKN049 09/05 Q1017
  • 051550Z 22008KT 9999 FEW015 09/05 Q1018
  • 051520Z 21009KT 9999 FEW020 10/05 Q1018
  • 051450Z 18008KT 9999 FEW020 10/06 Q1018

TAF TAF EGTE
Valido dal 05 a 18 ore il 06 a 03 ore UTC


051707Z 0518/0603 21010KT 9999 SCT020
BECMG 0518/0521 BKN010
PROB40
TEMPO 0518/0603 23015G25KT 7000 -RADZ BKN006



MetMap, La meteo Aeronautica in un colpo d'occhio ! - Copyright ORBIFLY Dicembre 2007 - Disclaimer

ORBIFLY MET'MAP TEAM :

Programmazione e sviluppo : Alexandra Zaïnal
Concezione : Baudouin d'Aumeries
Aiuto per la programmazione : Marc-Olivier Méhu
Supporto tecnico e logistico : Manuel Goepfert
Aiuto per la traduzione : Arnaldo La Scala

Contatto : metmap@orbifly.com




FONTI E CREDITI :

   NOAA